createdAt,value
2023-03-31T00:02:07.421Z,26.45
2023-03-31T00:04:53.161Z,27.92
2023-03-31T00:07:38.789Z,29.50
2023-03-31T00:10:24.272Z,30.80
2023-03-31T00:13:10.889Z,26.55
2023-03-31T00:15:59.697Z,30.38
2023-03-31T00:18:47.815Z,28.27
2023-03-31T00:21:37.066Z,29.30
2023-03-31T00:24:22.633Z,39.80
2023-03-31T00:27:08.949Z,42.03
2023-03-31T00:29:54.682Z,36.63
2023-03-31T00:32:40.415Z,39.55
2023-03-31T00:35:26.325Z,32.92
2023-03-31T00:38:14.007Z,33.65
2023-03-31T00:44:08.586Z,32.63
2023-03-31T00:46:57.281Z,27.27
2023-03-31T00:49:50.707Z,32.97
2023-03-31T00:52:37.579Z,33.50
2023-03-31T00:55:27.740Z,33.35
2023-03-31T00:58:15.295Z,32.88
2023-03-31T01:01:03.366Z,31.67
2023-03-31T01:03:50.628Z,27.48
2023-03-31T01:06:42.678Z,29.27
2023-03-31T01:09:35.079Z,27.00
2023-03-31T01:12:21.750Z,28.08
2023-03-31T01:15:09.222Z,29.80
2023-03-31T01:17:56.126Z,27.33
2023-03-31T01:21:07.872Z,24.65
2023-03-31T01:24:14.880Z,25.58
2023-03-31T01:27:45.312Z,26.75
2023-03-31T01:30:52.453Z,24.02
2023-03-31T01:34:07.441Z,25.65
2023-03-31T01:37:17.151Z,23.00
2023-03-31T01:40:11.944Z,23.92
2023-03-31T01:43:01.487Z,23.33
2023-03-31T01:46:11.113Z,23.73
2023-03-31T01:49:18.060Z,21.77
2023-03-31T01:52:21.514Z,21.73
2023-03-31T01:55:12.631Z,25.70
2023-03-31T01:58:04.363Z,25.77
2023-03-31T02:01:01.966Z,23.70
2023-03-31T02:03:58.209Z,22.08
2023-03-31T02:06:50.117Z,29.35
2023-03-31T02:09:39.197Z,24.17
2023-03-31T02:12:27.007Z,24.40
2023-03-31T02:15:16.357Z,20.92
2023-03-31T02:18:06.234Z,22.05
2023-03-31T02:20:53.240Z,20.88
2023-03-31T02:23:39.733Z,24.83
2023-03-31T02:26:29.104Z,22.45
2023-03-31T02:29:15.615Z,19.95
2023-03-31T02:32:43.639Z,18.42
2023-03-31T02:35:29.619Z,19.98
2023-03-31T02:38:16.056Z,21.25
2023-03-31T02:41:01.725Z,19.52
2023-03-31T02:43:47.181Z,17.55
2023-03-31T02:46:33.593Z,18.60
2023-03-31T02:49:21.501Z,17.35
2023-03-31T02:52:22.166Z,18.77
2023-03-31T02:55:17.276Z,20.15
2023-03-31T02:58:20.070Z,17.15
2023-03-31T03:01:29.330Z,18.10
2023-03-31T03:04:37.001Z,15.40
2023-03-31T03:07:45.689Z,15.02
2023-03-31T03:11:05.170Z,17.27
2023-03-31T03:14:12.447Z,17.15
2023-03-31T03:17:03.359Z,16.33
2023-03-31T03:19:57.554Z,16.73
2023-03-31T03:22:43.203Z,14.05
2023-03-31T03:25:30.386Z,19.90
2023-03-31T03:28:15.986Z,14.77
2023-03-31T03:31:01.571Z,17.55
2023-03-31T03:33:47.403Z,17.83
2023-03-31T03:36:33.504Z,16.70
2023-03-31T03:39:19.283Z,15.82
2023-03-31T03:42:04.914Z,18.92
2023-03-31T03:44:56.020Z,16.90
2023-03-31T03:47:42.387Z,16.88
2023-03-31T03:50:27.780Z,17.45
2023-03-31T03:53:14.193Z,17.88
2023-03-31T03:55:59.618Z,20.27
2023-03-31T03:58:45.715Z,20.20
2023-03-31T04:01:31.714Z,18.48
2023-03-31T04:04:19.089Z,18.10
2023-03-31T04:07:05.429Z,18.05
2023-03-31T04:09:51.675Z,16.90
2023-03-31T04:12:37.868Z,17.25
2023-03-31T04:15:23.282Z,18.08
2023-03-31T04:18:23.294Z,18.77
2023-03-31T04:21:12.291Z,17.58
2023-03-31T04:24:05.291Z,16.45
2023-03-31T04:26:51.228Z,16.98
2023-03-31T04:29:37.291Z,15.15
2023-03-31T04:32:24.694Z,15.10
2023-03-31T04:35:10.321Z,15.98
2023-03-31T04:37:59.224Z,16.70
2023-03-31T04:40:53.943Z,15.95
2023-03-31T04:43:39.478Z,18.27
2023-03-31T04:46:25.636Z,16.65
2023-03-31T04:49:11.130Z,18.13
2023-03-31T04:51:56.609Z,18.67
2023-03-31T04:54:41.879Z,17.52
2023-03-31T04:57:27.557Z,17.55
2023-03-31T05:00:14.387Z,18.08
2023-03-31T05:03:00.512Z,17.33
2023-03-31T05:05:46.263Z,17.90
2023-03-31T05:08:32.139Z,16.38
2023-03-31T05:11:17.990Z,16.73
2023-03-31T05:14:03.828Z,17.77
2023-03-31T05:16:49.535Z,16.38
2023-03-31T05:19:35.402Z,17.73
2023-03-31T05:22:20.857Z,17.67
2023-03-31T05:25:08.679Z,16.88
2023-03-31T05:27:54.302Z,16.27
2023-03-31T05:30:40.648Z,16.33
2023-03-31T05:33:26.036Z,14.90
2023-03-31T05:36:13.680Z,15.15
2023-03-31T05:38:59.094Z,17.23
2023-03-31T05:41:45.564Z,16.95
2023-03-31T05:44:31.482Z,14.82
2023-03-31T05:47:17.049Z,15.05
2023-03-31T05:50:07.929Z,16.00
2023-03-31T05:52:53.690Z,14.52
2023-03-31T05:55:39.354Z,17.30
2023-03-31T05:58:25.449Z,16.25
2023-03-31T06:01:15.317Z,13.82
2023-03-31T06:04:03.367Z,17.10
2023-03-31T06:06:50.549Z,16.50
2023-03-31T06:09:36.565Z,17.98
2023-03-31T06:12:22.221Z,14.45
2023-03-31T06:15:08.302Z,15.10
2023-03-31T06:17:54.099Z,14.32
2023-03-31T06:20:41.932Z,13.90
2023-03-31T06:23:27.437Z,14.55
2023-03-31T06:26:19.674Z,15.32
2023-03-31T06:29:05.661Z,13.02
2023-03-31T06:31:51.559Z,11.88
2023-03-31T06:34:37.036Z,15.27
2023-03-31T06:37:22.931Z,15.27
2023-03-31T06:40:08.942Z,13.50
2023-03-31T06:42:54.693Z,13.60
2023-03-31T06:45:40.525Z,13.05
2023-03-31T06:48:27.289Z,13.75
2023-03-31T06:51:13.313Z,15.18
2023-03-31T06:53:58.986Z,13.90
2023-03-31T06:56:44.573Z,12.95
2023-03-31T06:59:30.292Z,11.63
2023-03-31T07:02:15.619Z,14.27
2023-03-31T07:05:01.248Z,14.35
2023-03-31T07:07:46.588Z,13.05
2023-03-31T07:10:32.944Z,12.88
2023-03-31T07:13:19.602Z,10.93
2023-03-31T07:16:07.367Z,12.15
2023-03-31T07:18:55.085Z,12.30
2023-03-31T07:21:40.956Z,10.57
2023-03-31T07:24:27.068Z,11.80
2023-03-31T07:27:13.066Z,10.27
2023-03-31T07:29:59.099Z,9.80
2023-03-31T07:32:49.743Z,8.85
2023-03-31T07:35:38.894Z,11.38
2023-03-31T07:38:24.420Z,9.07
2023-03-31T07:41:14.504Z,9.75
2023-03-31T07:44:00.473Z,9.35
2023-03-31T07:46:45.828Z,11.75
2023-03-31T07:49:35.774Z,9.30
2023-03-31T07:52:21.760Z,11.75
2023-03-31T07:55:08.510Z,11.57
2023-03-31T07:57:54.023Z,10.95
2023-03-31T08:00:40.113Z,9.68
2023-03-31T08:03:26.605Z,13.32
2023-03-31T08:06:12.586Z,12.65
2023-03-31T08:08:58.733Z,11.52
2023-03-31T08:11:46.816Z,12.68
2023-03-31T08:14:40.692Z,11.05
2023-03-31T08:17:27.280Z,10.18
2023-03-31T08:20:13.005Z,10.27
2023-03-31T08:22:58.448Z,8.85
2023-03-31T08:25:43.921Z,8.18
2023-03-31T08:28:29.713Z,9.30
2023-03-31T08:31:16.479Z,8.45
2023-03-31T08:34:02.934Z,8.77
2023-03-31T08:36:48.929Z,10.00
2023-03-31T08:39:34.728Z,6.35
2023-03-31T08:42:49.680Z,7.88
2023-03-31T08:45:39.829Z,6.47
2023-03-31T08:48:49.130Z,7.22
2023-03-31T08:51:40.198Z,7.18
2023-03-31T08:54:38.499Z,6.70
2023-03-31T08:57:51.858Z,7.65
2023-03-31T09:00:51.670Z,7.82
2023-03-31T09:03:47.065Z,7.85
2023-03-31T09:06:53.058Z,9.32
2023-03-31T09:09:48.776Z,8.18
2023-03-31T09:12:50.725Z,6.05
2023-03-31T09:15:49.830Z,9.00
2023-03-31T09:18:37.305Z,7.40
2023-03-31T09:21:27.902Z,5.90
2023-03-31T09:24:32.717Z,5.90
2023-03-31T09:27:20.290Z,7.80
2023-03-31T09:30:20.365Z,6.47
2023-03-31T09:33:18.691Z,6.90
2023-03-31T09:36:17.015Z,6.85
2023-03-31T09:39:02.784Z,5.90
2023-03-31T09:41:50.590Z,8.63
2023-03-31T09:44:43.747Z,8.65
2023-03-31T09:47:34.051Z,8.05
2023-03-31T09:50:25.225Z,8.30
2023-03-31T09:53:18.476Z,7.30
2023-03-31T09:56:06.723Z,8.60
2023-03-31T09:58:52.119Z,9.57
2023-03-31T10:01:37.587Z,5.55
2023-03-31T10:04:25.245Z,8.68
2023-03-31T10:09:57.528Z,7.78
2023-03-31T10:12:51.872Z,7.32
2023-03-31T10:15:40.974Z,6.82
2023-03-31T10:18:40.535Z,7.97
2023-03-31T10:21:28.469Z,7.45
2023-03-31T10:24:20.048Z,9.70
2023-03-31T10:27:08.044Z,8.85
2023-03-31T10:32:43.070Z,6.38
2023-03-31T10:35:36.747Z,7.95
2023-03-31T10:38:29.626Z,8.63
2023-03-31T10:41:20.008Z,7.57
2023-03-31T10:44:05.709Z,7.93
2023-03-31T10:46:53.192Z,8.32
2023-03-31T10:49:40.018Z,7.25
2023-03-31T10:52:27.380Z,8.13
2023-03-31T10:55:15.006Z,8.30
2023-03-31T10:58:14.812Z,8.13
2023-03-31T11:01:15.150Z,6.30
2023-03-31T11:04:28.316Z,9.90
2023-03-31T11:07:24.649Z,9.10
2023-03-31T11:10:30.387Z,9.60
2023-03-31T11:13:25.268Z,8.57
2023-03-31T11:16:26.416Z,7.78
2023-03-31T11:19:24.909Z,9.93
2023-03-31T11:22:19.275Z,10.02
2023-03-31T11:25:29.621Z,9.02
2023-03-31T11:28:33.405Z,8.35
2023-03-31T11:31:31.970Z,10.35
2023-03-31T11:34:37.086Z,9.57
2023-03-31T11:37:41.707Z,8.77
2023-03-31T11:40:55.041Z,9.25
2023-03-31T11:43:44.272Z,8.57
2023-03-31T11:46:41.151Z,7.07
2023-03-31T11:49:29.592Z,8.73
2023-03-31T11:52:19.405Z,9.20
2023-03-31T11:55:17.144Z,10.35
2023-03-31T11:58:06.247Z,11.15
2023-03-31T12:00:55.882Z,7.82
2023-03-31T12:03:52.302Z,7.00
2023-03-31T12:06:42.582Z,5.63
2023-03-31T12:09:35.377Z,7.43
2023-03-31T12:12:25.473Z,7.22
2023-03-31T12:15:18.693Z,11.20
2023-03-31T12:18:13.519Z,6.43
2023-03-31T12:21:02.131Z,7.03
2023-03-31T12:23:48.145Z,7.38
2023-03-31T12:26:45.969Z,7.05
2023-03-31T12:29:35.391Z,10.98
2023-03-31T12:32:23.577Z,9.35
2023-03-31T12:35:54.137Z,7.25
2023-03-31T12:39:14.196Z,7.18
2023-03-31T12:42:12.047Z,6.32
2023-03-31T12:45:16.578Z,6.15
2023-03-31T12:48:17.409Z,8.90
2023-03-31T12:51:22.747Z,8.45
2023-03-31T12:54:22.865Z,5.20
2023-03-31T12:57:08.441Z,11.60
2023-03-31T13:00:12.730Z,8.13
2023-03-31T13:03:35.561Z,6.38
2023-03-31T13:06:30.503Z,7.82
2023-03-31T13:09:15.797Z,7.50
2023-03-31T13:12:16.633Z,8.38
2023-03-31T13:15:04.794Z,7.55
2023-03-31T13:18:20.303Z,6.93
2023-03-31T13:21:07.955Z,7.63
2023-03-31T13:23:53.878Z,9.05
2023-03-31T13:26:41.754Z,8.98
2023-03-31T13:32:26.300Z,9.85
2023-03-31T13:35:21.720Z,7.90
2023-03-31T13:38:07.397Z,8.57
2023-03-31T13:41:00.220Z,8.27
2023-03-31T13:44:13.470Z,10.80
2023-03-31T13:47:30.897Z,8.35
2023-03-31T13:50:44.840Z,10.40
2023-03-31T13:53:40.576Z,9.43
2023-03-31T13:56:31.991Z,8.95
2023-03-31T13:59:30.372Z,8.88
2023-03-31T14:02:38.675Z,11.93
2023-03-31T14:05:26.228Z,8.07
2023-03-31T14:08:15.650Z,10.35
2023-03-31T14:11:24.112Z,10.65
2023-03-31T14:14:14.728Z,10.65
2023-03-31T14:17:02.655Z,8.98
2023-03-31T14:20:23.683Z,11.68
2023-03-31T14:23:30.360Z,10.35
2023-03-31T14:26:28.484Z,11.05
2023-03-31T14:29:51.580Z,13.52
2023-03-31T14:33:14.737Z,12.02
2023-03-31T14:36:16.043Z,12.15
2023-03-31T14:39:04.649Z,12.85
2023-03-31T14:41:54.169Z,12.63
2023-03-31T14:44:41.144Z,14.95
2023-03-31T14:47:32.140Z,12.98
2023-03-31T14:50:19.355Z,10.80
2023-03-31T14:53:15.175Z,11.77
2023-03-31T14:56:10.042Z,14.52
2023-03-31T14:58:55.763Z,14.73
2023-03-31T15:01:44.537Z,12.95
2023-03-31T15:04:42.109Z,14.38
2023-03-31T15:07:28.628Z,13.15
2023-03-31T15:10:20.114Z,12.68
2023-03-31T15:13:18.789Z,11.60
2023-03-31T15:16:46.191Z,12.70
2023-03-31T15:19:40.891Z,10.90
2023-03-31T15:22:28.521Z,11.38
2023-03-31T15:25:14.838Z,11.10
2023-03-31T15:28:06.606Z,12.80
2023-03-31T15:30:56.978Z,11.10
2023-03-31T15:33:49.452Z,10.57
2023-03-31T15:36:35.097Z,11.35
2023-03-31T15:39:20.642Z,10.68
2023-03-31T15:42:07.237Z,10.38
2023-03-31T15:45:29.573Z,13.80
2023-03-31T15:48:23.536Z,13.13
2023-03-31T15:51:13.003Z,11.95
2023-03-31T15:53:58.384Z,9.65
2023-03-31T15:56:45.357Z,11.68
2023-03-31T15:59:38.166Z,14.65
2023-03-31T16:02:41.563Z,13.30
2023-03-31T16:05:34.417Z,11.95
2023-03-31T16:08:31.581Z,11.32
2023-03-31T16:11:21.197Z,11.82
2023-03-31T16:14:16.882Z,11.57
2023-03-31T16:17:13.105Z,11.80
2023-03-31T16:20:07.422Z,11.43
2023-03-31T16:22:56.438Z,11.23
2023-03-31T16:25:42.868Z,10.13
2023-03-31T16:28:34.864Z,11.18
2023-03-31T16:31:34.770Z,10.90
2023-03-31T16:34:20.556Z,14.70
2023-03-31T16:37:11.537Z,10.55
2023-03-31T16:39:57.468Z,11.82
2023-03-31T16:42:42.742Z,11.70
2023-03-31T16:45:28.307Z,10.82
2023-03-31T16:48:17.546Z,17.77
2023-03-31T16:51:04.204Z,13.85
2023-03-31T16:53:49.729Z,12.40
2023-03-31T16:56:35.141Z,13.60
2023-03-31T16:59:21.940Z,11.32
2023-03-31T17:02:11.093Z,12.07
2023-03-31T17:05:06.170Z,12.73
2023-03-31T17:07:58.688Z,10.02
2023-03-31T17:10:52.136Z,13.18
2023-03-31T17:13:38.856Z,12.13
2023-03-31T17:16:36.173Z,17.40
2023-03-31T17:19:27.768Z,11.05
2023-03-31T17:22:13.630Z,11.50
2023-03-31T17:24:59.010Z,9.10
2023-03-31T17:27:45.606Z,9.43
2023-03-31T17:30:34.240Z,13.27
2023-03-31T17:33:19.653Z,8.90
2023-03-31T17:36:05.463Z,12.43
2023-03-31T17:38:51.004Z,13.13
2023-03-31T17:41:36.653Z,34.25
2023-03-31T17:44:22.681Z,42.50
2023-03-31T17:47:08.536Z,203.10
2023-03-31T17:49:54.808Z,182.38
2023-03-31T17:52:41.024Z,68.60
2023-03-31T17:55:27.258Z,100.68
2023-03-31T17:58:13.719Z,121.55
2023-03-31T18:00:59.704Z,150.45
2023-03-31T18:03:46.457Z,161.35
2023-03-31T18:06:32.370Z,136.27
2023-03-31T18:09:18.227Z,118.65
2023-03-31T18:12:04.186Z,129.02
2023-03-31T18:14:49.758Z,88.40
2023-03-31T18:17:34.914Z,79.68
2023-03-31T18:20:20.843Z,73.63
2023-03-31T18:23:06.709Z,74.57
2023-03-31T18:25:52.739Z,73.07
2023-03-31T18:28:40.788Z,74.55
2023-03-31T18:31:27.376Z,81.50
2023-03-31T18:34:13.688Z,141.43
2023-03-31T18:36:59.672Z,204.85
2023-03-31T18:39:45.790Z,189.57
2023-03-31T18:42:31.311Z,212.18
2023-03-31T18:45:16.964Z,233.10
2023-03-31T18:48:02.964Z,145.90
2023-03-31T18:50:49.567Z,103.95
2023-03-31T18:53:35.300Z,116.10
2023-03-31T18:56:20.658Z,102.22
2023-03-31T18:59:06.116Z,108.22
2023-03-31T19:01:52.306Z,139.77
2023-03-31T19:04:38.242Z,399.13
2023-03-31T19:07:23.895Z,260.98
2023-03-31T19:10:09.946Z,372.70
2023-03-31T19:12:55.802Z,233.20
2023-03-31T19:15:42.012Z,194.90
2023-03-31T19:18:28.854Z,133.93
2023-03-31T19:21:14.431Z,105.05
2023-03-31T19:23:59.733Z,93.85
2023-03-31T19:26:45.609Z,96.95
2023-03-31T19:29:31.910Z,101.43
2023-03-31T19:32:17.605Z,67.95
2023-03-31T19:35:03.650Z,94.50
2023-03-31T19:37:49.889Z,110.40
2023-03-31T19:40:37.094Z,112.50
2023-03-31T19:43:24.162Z,107.95
2023-03-31T19:46:09.439Z,118.97
2023-03-31T19:48:55.133Z,107.85
2023-03-31T19:51:40.484Z,67.97
2023-03-31T19:54:26.281Z,68.13
2023-03-31T19:57:11.718Z,85.88
2023-03-31T19:59:57.735Z,82.38
2023-03-31T20:02:43.374Z,83.90
2023-03-31T20:05:31.736Z,88.47
2023-03-31T20:08:17.985Z,76.25
2023-03-31T20:11:07.425Z,76.63
2023-03-31T20:13:53.554Z,68.57
2023-03-31T20:16:39.227Z,71.05
2023-03-31T20:19:26.387Z,67.35
2023-03-31T20:22:12.093Z,62.95
2023-03-31T20:24:57.681Z,60.00
2023-03-31T20:27:43.566Z,64.38
2023-03-31T20:30:29.469Z,51.10
2023-03-31T20:33:18.265Z,44.03
2023-03-31T20:36:06.386Z,42.17
2023-03-31T20:38:53.303Z,48.40
2023-03-31T20:41:38.755Z,51.72
2023-03-31T20:44:24.185Z,44.22
2023-03-31T20:47:09.813Z,43.70
2023-03-31T20:49:55.407Z,46.55
2023-03-31T20:52:41.155Z,43.95
2023-03-31T20:55:27.389Z,47.22
2023-03-31T20:58:12.664Z,41.88
2023-03-31T21:00:59.023Z,22.67
2023-03-31T21:03:44.729Z,16.08
2023-03-31T21:06:32.749Z,23.60
2023-03-31T21:09:18.430Z,28.02
2023-03-31T21:12:04.931Z,30.25
2023-03-31T21:14:50.233Z,34.30
2023-03-31T21:17:36.078Z,30.48
2023-03-31T21:20:21.449Z,28.48
2023-03-31T21:23:06.857Z,33.67
2023-03-31T21:25:56.847Z,30.40
2023-03-31T21:28:42.919Z,24.27
2023-03-31T21:31:29.368Z,33.35
2023-03-31T21:34:14.915Z,27.05
2023-03-31T21:37:01.679Z,28.20
2023-03-31T21:39:47.209Z,27.20
2023-03-31T21:42:36.565Z,28.25
2023-03-31T21:45:22.030Z,25.77
2023-03-31T21:48:09.376Z,25.75
2023-03-31T21:50:56.214Z,26.42
2023-03-31T21:53:41.898Z,22.10
2023-03-31T21:56:32.003Z,23.10
2023-03-31T21:59:18.516Z,23.20
2023-03-31T22:02:04.976Z,19.88
2023-03-31T22:04:52.463Z,24.60
2023-03-31T22:07:38.518Z,25.52
2023-03-31T22:10:24.433Z,27.17
2023-03-31T22:13:10.414Z,24.90
2023-03-31T22:15:56.385Z,23.55
2023-03-31T22:18:44.824Z,22.35
2023-03-31T22:21:30.889Z,23.88
2023-03-31T22:24:16.744Z,22.63
2023-03-31T22:27:02.757Z,25.17
2023-03-31T22:29:48.181Z,25.05
2023-03-31T22:32:34.025Z,25.20
2023-03-31T22:35:19.686Z,19.85
2023-03-31T22:38:06.659Z,19.77
2023-03-31T22:40:53.073Z,18.73
2023-03-31T22:43:38.554Z,20.00
2023-03-31T22:46:25.011Z,18.45
2023-03-31T22:49:10.691Z,13.82
2023-03-31T22:51:57.014Z,14.65
2023-03-31T22:54:53.201Z,17.58
2023-03-31T22:57:39.334Z,14.85
2023-03-31T23:00:24.971Z,16.88
2023-03-31T23:03:10.572Z,16.42
2023-03-31T23:05:56.438Z,15.60
2023-03-31T23:08:42.305Z,15.88
2023-03-31T23:11:27.678Z,13.98
2023-03-31T23:14:13.482Z,15.68
2023-03-31T23:16:59.005Z,11.82
2023-03-31T23:19:47.586Z,17.30
2023-03-31T23:22:34.201Z,16.88
2023-03-31T23:25:19.977Z,16.58
2023-03-31T23:28:05.941Z,17.27
2023-03-31T23:30:56.751Z,16.55
2023-03-31T23:33:42.319Z,13.18
2023-03-31T23:36:28.849Z,14.35
2023-03-31T23:39:14.565Z,16.02
2023-03-31T23:42:00.366Z,15.10
2023-03-31T23:44:46.071Z,13.57
2023-03-31T23:47:32.754Z,13.43
2023-03-31T23:50:18.109Z,13.70
2023-03-31T23:53:03.770Z,18.10
2023-03-31T23:55:58.477Z,15.20
2023-03-31T23:58:45.157Z,17.90
